Coos Bay, OR (97420)

1:37 PM PST on February 14, 2016 (GMT -0800)
Red Dike Road | | Change Station
CLOSE
Current Station
Personal Weather Station
Location: Coos Bay, OR
Elevation: 39 ft
Nearby Weather Stations

Elev 39 ft 43.33 °N, 124.23 °W | Updated 6 minutes ago

Overcast
Overcast
55.0 °F
Feels Like 55.0 °F
N
4.7
Wind Variable Wind from SSW

Today
High -- | Low -- °F
--% Chance of Precip.
Yesterday
High -- | Low -- °F
Precip. -- in
Pressure 30.40 in
Visibility 4.0 miles
Clouds Overcast 600 ft
Dew Point 54 °F
Humidity 95%
Rainfall 0.27 in
Snow Depth Not available.
7:16 AM 5:45 PM
Waxing Crescent, 45% visible
METAR KOTH 142135Z 22006KT 4SM OVC006 13/12 A3040 RMK AO1
Pressure 30.40 in
Visibility 4.0 miles
Clouds Overcast 600 ft
Dew Point 54 °F
Humidity 95%
Rainfall 0.27 in
Snow Depth Not available.
7:16 AM 5:45 PM
Waxing Crescent, 45% visible
METAR KOTH 142135Z 22006KT 4SM OVC006 13/12 A3040 RMK AO1

10-Day Weather Forecast

Almanac

Astronomy

Feb. 14, 2016 Rise Set
Actual Time
Civil Twilight
Nautical Twilight
Astronomical Twilight
Moon
Length of Visible Light
Length of Day
Tomorrow will be .
, % of the Moon is Illuminated

Today's Extremes

State Highs State Lows

Community

WunderPhotos

Upload Photos

1,892,890 photos uploaded!

WunderBlog® & News

Nearby

Air Quality

  Air Quality AQ Index Pollutant
Not available.

Snow Depth

Station Depth Elevation

Earthquake Activity

City Distance Mag. Time & Date
Minimum magnitude displayed is 2.5.

Coastal Water Temperatures

Place Temperature

Stations

Nearby Weather Stations

Station Location Temp. Windchill Dew Point Humidity Wind Precip. Elev Updated Type
                   

Watches & Warnings

There are currently no watches in effect.